Time;durP1;ratioP1;P1;durP2;ratioP2;P2;SDS_P1;SDS_P2;PMS_P1;PMS_P2;Temp;Humidity;BMP_temperature;BMP_pressure;BME280_temperature;BME280_humidity;BME280_pressure;Samples;Min_cycle;Max_cycle;Signal;HPM_P1;HPM_P2
2022/06/23 00:01:19;;;;;;;7.07;4.30;;;19.00;67.50;;;;;;5096721;27;20040;-67
2022/06/23 00:03:48;;;;;;;7.22;3.67;;;19.00;68.00;;;;;;5079311;28;20428;-67
2022/06/23 00:06:44;;;;;;;6.80;3.83;;;19.00;67.60;;;;;;5084441;28;20030;-67
2022/06/23 00:09:32;;;;;;;5.00;3.53;;;18.90;68.10;;;;;;5080954;28;20047;-67
2022/06/23 00:11:58;;;;;;;7.25;3.90;;;18.90;67.80;;;;;;5089562;28;20077;-68
2022/06/23 00:14:25;;;;;;;7.68;4.95;;;18.80;68.30;;;;;;5084457;28;20027;-68
2022/06/23 00:16:51;;;;;;;7.93;4.07;;;18.70;69.90;;;;;;5090539;28;20414;-69
2022/06/23 00:19:16;;;;;;;5.82;3.33;;;18.80;68.80;;;;;;5089211;28;20028;-68
2022/06/23 00:21:46;;;;;;;4.50;3.25;;;18.80;68.30;;;;;;5091404;28;20020;-68
2022/06/23 00:24:23;;;;;;;4.07;3.10;;;18.80;67.80;;;;;;5086150;28;20024;-68
2022/06/23 00:26:50;;;;;;;7.43;4.40;;;18.80;67.70;;;;;;5088875;28;20028;-67
2022/06/23 00:29:18;;;;;;;6.75;4.47;;;18.80;68.10;;;;;;5083478;28;20032;-68
2022/06/23 00:31:52;;;;;;;6.13;4.07;;;18.70;68.70;;;;;;5090163;28;20028;-68
2022/06/23 00:34:24;;;;;;;6.78;4.35;;;18.70;68.40;;;;;;5085153;28;20028;-68
2022/06/23 00:36:53;;;;;;;6.13;3.90;;;18.60;69.10;;;;;;5088997;28;20118;-68
2022/06/23 00:39:35;;;;;;;4.97;3.00;;;18.60;69.00;;;;;;5084484;28;20099;-68
2022/06/23 00:42:16;;;;;;;7.22;4.43;;;18.60;68.50;;;;;;5081863;28;20364;-68
2022/06/23 00:45:06;;;;;;;5.50;3.60;;;18.60;68.60;;;;;;5075952;28;20383;-67
2022/06/23 00:47:42;;;;;;;5.85;3.80;;;18.60;68.60;;;;;;5101052;28;20024;-68
2022/06/23 00:50:34;;;;;;;6.35;3.90;;;18.60;68.20;;;;;;5095091;28;20397;-67
2022/06/23 00:53:02;;;;;;;8.40;4.70;;;18.60;68.00;;;;;;5089285;28;20034;-68
2022/06/23 00:55:51;;;;;;;7.43;4.57;;;18.50;68.40;;;;;;5075817;28;20036;-68
2022/06/23 00:58:51;;;;;;;6.65;3.70;;;18.50;68.60;;;;;;5080578;28;20020;-69
2022/06/23 01:01:29;;;;;;;7.80;5.38;;;18.60;68.30;;;;;;5083620;28;20069;-69
2022/06/23 01:03:59;;;;;;;6.28;4.03;;;18.40;69.20;;;;;;5082310;28;20072;-68
2022/06/23 01:06:41;;;;;;;6.45;3.72;;;18.40;69.20;;;;;;5101234;28;20469;-69
2022/06/23 01:09:49;;;;;;;9.32;4.90;;;18.40;69.00;;;;;;5086514;28;20069;-67
2022/06/23 01:12:37;;;;;;;8.73;4.82;;;18.30;69.40;;;;;;5067315;28;20044;-68
2022/06/23 01:15:18;;;;;;;4.60;3.60;;;18.30;69.60;;;;;;5081283;28;20020;-68
2022/06/23 01:17:52;;;;;;;7.80;3.97;;;18.30;69.70;;;;;;5087739;28;20032;-69
2022/06/23 01:20:45;;;;;;;7.35;3.67;;;18.30;69.40;;;;;;5082722;28;20025;-68
2022/06/23 01:23:19;;;;;;;5.90;4.60;;;18.30;69.70;;;;;;5075058;28;20032;-69
2022/06/23 01:26:07;;;;;;;5.28;3.30;;;18.30;69.60;;;;;;5080070;28;20060;-68
2022/06/23 01:28:41;;;;;;;7.68;5.10;;;18.30;69.60;;;;;;5087029;28;20032;-68
2022/06/23 01:31:14;;;;;;;8.45;5.35;;;18.20;70.00;;;;;;5088213;28;20031;-68
2022/06/23 01:34:01;;;;;;;7.18;4.55;;;18.10;70.40;;;;;;5088400;28;20028;-68
2022/06/23 01:36:33;;;;;;;5.35;4.07;;;18.10;70.40;;;;;;5077531;28;20024;-68
2022/06/23 01:39:06;;;;;;;5.65;4.78;;;18.10;70.00;;;;;;5085794;28;20024;-68
2022/06/23 01:41:43;;;;;;;7.78;4.43;;;18.10;70.10;;;;;;5083768;28;20393;-69
2022/06/23 01:44:14;;;;;;;8.35;5.93;;;18.00;70.40;;;;;;5086246;28;20051;-68
2022/06/23 01:46:42;;;;;;;7.83;5.03;;;18.00;70.50;;;;;;5084998;28;20398;-67
2022/06/23 01:49:20;;;;;;;8.38;5.68;;;17.90;70.60;;;;;;5091111;28;20505;-67
2022/06/23 01:51:49;;;;;;;8.48;4.97;;;17.90;70.90;;;;;;5088650;28;20040;-69
2022/06/23 01:54:21;;;;;;;7.65;5.20;;;17.90;71.10;;;;;;5106440;28;20046;-69
2022/06/23 01:56:49;;;;;;;7.88;4.30;;;17.90;71.30;;;;;;5095942;28;20042;-69
2022/06/23 01:59:50;;;;;;;6.50;3.72;;;17.80;71.30;;;;;;5101532;28;20113;-68
2022/06/23 02:02:32;;;;;;;6.53;4.40;;;17.80;71.10;;;;;;5090050;28;20035;-68
2022/06/23 02:05:03;;;;;;;7.10;4.43;;;17.80;71.20;;;;;;5073038;28;20089;-69
2022/06/23 02:07:43;;;;;;;8.68;5.43;;;17.80;71.30;;;;;;5084628;28;20478;-68
2022/06/23 02:10:24;;;;;;;5.00;4.03;;;17.70;71.30;;;;;;5090861;28;20419;-68
2022/06/23 02:13:11;;;;;;;5.77;4.23;;;17.80;70.80;;;;;;5099357;28;20043;-68
2022/06/23 02:15:55;;;;;;;5.55;3.63;;;17.80;70.30;;;;;;5091469;28;20258;-68
2022/06/23 02:18:42;;;;;;;6.78;4.65;;;17.80;70.10;;;;;;5101888;28;20387;-68
2022/06/23 02:21:26;;;;;;;6.63;5.45;;;17.80;70.00;;;;;;5091480;28;20065;-68
2022/06/23 02:24:15;;;;;;;6.63;4.80;;;17.80;70.50;;;;;;5103351;28;20104;-68
2022/06/23 02:26:46;;;;;;;4.82;4.30;;;17.80;70.40;;;;;;5093266;28;20100;-68
2022/06/23 02:29:21;;;;;;;8.57;5.03;;;17.70;70.50;;;;;;5091774;28;20038;-68
2022/06/23 02:31:56;;;;;;;8.30;5.35;;;17.70;70.50;;;;;;5084879;28;20154;-68
2022/06/23 02:34:30;;;;;;;7.45;4.15;;;17.70;70.60;;;;;;5087282;28;20580;-68
2022/06/23 02:37:25;;;;;;;7.05;4.57;;;17.70;70.20;;;;;;5093443;28;20026;-68
2022/06/23 02:39:55;;;;;;;7.68;4.60;;;17.70;70.20;;;;;;5093045;28;20109;-68
2022/06/23 02:42:34;;;;;;;6.95;4.43;;;17.70;69.90;;;;;;5083713;28;20057;-67
2022/06/23 02:45:12;;;;;;;7.10;5.00;;;17.80;69.60;;;;;;5092100;28;20036;-68
2022/06/23 02:47:52;;;;;;;10.25;4.30;;;17.70;69.50;;;;;;5090663;28;20024;-68
2022/06/23 02:50:39;;;;;;;7.60;4.30;;;17.80;69.40;;;;;;5099063;28;20043;-67
2022/06/23 02:53:25;;;;;;;5.95;4.00;;;17.80;69.10;;;;;;5082951;28;20390;-69
2022/06/23 02:56:16;;;;;;;7.43;4.78;;;17.80;68.90;;;;;;5091499;28;20024;-68
2022/06/23 02:59:17;;;;;;;7.50;5.32;;;17.80;68.70;;;;;;5093892;28;20024;-68
2022/06/23 03:01:51;;;;;;;7.75;5.30;;;17.90;68.40;;;;;;5075870;28;20107;-68
2022/06/23 03:04:32;;;;;;;6.90;5.18;;;17.90;68.20;;;;;;5098419;28;20030;-68
2022/06/23 03:07:23;;;;;;;6.13;4.25;;;17.90;68.10;;;;;;5104005;28;20034;-67
2022/06/23 03:09:59;;;;;;;5.93;4.03;;;17.90;67.90;;;;;;5086280;28;20514;-67
2022/06/23 03:12:36;;;;;;;7.82;5.10;;;17.90;67.90;;;;;;5087226;28;20035;-67
2022/06/23 03:15:15;;;;;;;6.00;4.20;;;17.90;68.00;;;;;;5086122;28;20482;-67
2022/06/23 03:17:53;;;;;;;6.82;4.00;;;17.90;67.80;;;;;;5088392;28;20050;-67
2022/06/23 03:20:33;;;;;;;7.13;4.03;;;17.90;67.70;;;;;;5089002;28;20529;-67
2022/06/23 03:23:13;;;;;;;7.18;5.15;;;17.90;67.70;;;;;;5085035;28;20063;-67
2022/06/23 03:25:52;;;;;;;8.70;5.10;;;17.90;67.80;;;;;;5091558;28;20055;-67
2022/06/23 03:28:26;;;;;;;5.80;3.70;;;17.90;67.60;;;;;;5090251;28;20035;-68
2022/06/23 03:31:03;;;;;;;6.63;3.75;;;17.90;67.60;;;;;;5075963;28;20059;-68
2022/06/23 03:33:51;;;;;;;6.25;3.70;;;17.90;67.60;;;;;;5090677;28;20040;-68
2022/06/23 03:36:34;;;;;;;6.18;4.05;;;17.90;67.50;;;;;;5071543;28;20027;-68
2022/06/23 03:42:31;;;;;;;7.25;4.70;;;17.80;67.80;;;;;;5083710;28;20081;-69
2022/06/23 03:45:23;;;;;;;5.05;3.50;;;17.80;68.10;;;;;;5080461;28;20587;-70
2022/06/23 03:48:14;;;;;;;8.15;4.70;;;17.80;68.00;;;;;;5084223;28;20039;-68
2022/06/23 03:50:57;;;;;;;7.32;5.53;;;17.80;68.00;;;;;;5084518;28;20020;-69
2022/06/23 03:53:29;;;;;;;;;;;17.70;68.40;;;;;;5098254;28;20024;-69
2022/06/23 03:56:03;;;;;;;6.70;4.88;;;17.70;68.50;;;;;;5090988;28;19912;-69
2022/06/23 03:58:33;;;;;;;6.07;4.35;;;17.70;68.60;;;;;;5088068;28;20024;-68
2022/06/23 04:01:12;;;;;;;6.85;4.72;;;17.60;68.70;;;;;;5080318;28;20023;-69
2022/06/23 04:03:51;;;;;;;7.97;4.82;;;17.60;68.70;;;;;;5083199;28;20028;-68
2022/06/23 04:06:30;;;;;;;6.30;4.07;;;17.60;68.70;;;;;;5089563;28;20440;-69
2022/06/23 04:09:32;;;;;;;6.60;4.13;;;17.60;68.60;;;;;;5086818;28;20051;-70
2022/06/23 04:12:06;;;;;;;6.03;4.30;;;17.60;68.70;;;;;;5081892;28;20654;-68
2022/06/23 04:14:53;;;;;;;7.10;4.38;;;17.60;68.70;;;;;;5087243;28;20021;-68
2022/06/23 04:17:41;;;;;;;7.32;5.05;;;17.70;68.60;;;;;;5088424;28;20459;-68
2022/06/23 04:20:35;;;;;;;5.40;3.70;;;17.70;68.30;;;;;;5079804;28;20598;-68
2022/06/23 04:23:04;;;;;;;7.05;4.45;;;17.70;68.10;;;;;;5077539;28;20015;-66
2022/06/23 04:26:04;;;;;;;7.95;4.88;;;17.80;68.10;;;;;;5084975;28;20024;-67
2022/06/23 04:28:43;;;;;;;7.90;4.93;;;17.80;67.80;;;;;;5080449;28;20491;-67
2022/06/23 04:31:16;;;;;;;7.05;4.85;;;17.90;67.70;;;;;;5080643;28;20486;-67
2022/06/23 04:33:43;;;;;;;8.60;5.32;;;17.90;67.70;;;;;;5082623;28;20116;-67
2022/06/23 04:36:28;;;;;;;7.70;4.90;;;17.90;67.40;;;;;;5078578;28;20023;-67
2022/06/23 04:39:16;;;;;;;8.18;4.50;;;18.00;67.30;;;;;;5077172;28;20091;-67
2022/06/23 04:41:50;;;;;;;5.43;4.18;;;18.00;67.20;;;;;;5078810;28;20075;-67
2022/06/23 04:44:33;;;;;;;6.82;4.78;;;18.00;67.00;;;;;;5079318;28;20032;-67
2022/06/23 04:47:11;;;;;;;6.95;4.47;;;18.10;67.00;;;;;;5081457;28;20032;-67
2022/06/23 04:49:40;;;;;;;7.47;4.30;;;18.10;66.80;;;;;;5086467;28;20028;-68
2022/06/23 04:52:24;;;;;;;5.93;4.45;;;18.10;66.70;;;;;;5075835;28;20759;-68
2022/06/23 04:55:21;;;;;;;5.50;4.35;;;18.50;66.00;;;;;;5083965;28;20019;-68
2022/06/23 04:57:59;;;;;;;6.03;3.90;;;18.90;64.90;;;;;;5065150;28;20671;-68
2022/06/23 05:00:36;;;;;;;9.70;4.82;;;19.30;63.60;;;;;;5077260;28;20094;-67
2022/06/23 05:03:18;;;;;;;7.07;3.92;;;19.60;62.50;;;;;;5079662;28;20032;-67
2022/06/23 05:05:43;;;;;;;5.20;3.65;;;19.80;62.00;;;;;;5083272;28;20501;-68
2022/06/23 05:08:30;;;;;;;5.95;3.78;;;19.90;61.40;;;;;;5080337;28;20028;-68
2022/06/23 05:11:13;;;;;;;6.78;3.92;;;20.10;60.80;;;;;;5084867;28;20035;-68
2022/06/23 05:13:54;;;;;;;5.35;3.65;;;20.20;60.30;;;;;;5078788;28;20074;-68
2022/06/23 05:16:28;;;;;;;7.00;3.80;;;20.40;59.90;;;;;;5080166;28;20051;-68
2022/06/23 05:18:57;;;;;;;5.05;3.67;;;20.50;59.20;;;;;;5076919;28;20220;-70
2022/06/23 05:21:28;;;;;;;5.53;4.10;;;20.70;59.10;;;;;;5080023;28;20023;-67
2022/06/23 05:24:11;;;;;;;4.50;3.38;;;20.90;58.60;;;;;;5083467;28;20039;-68
2022/06/23 05:26:46;;;;;;;6.78;4.07;;;20.90;58.20;;;;;;5084108;28;20039;-67
2022/06/23 05:29:18;;;;;;;6.97;4.22;;;20.90;58.20;;;;;;5086125;28;20024;-69
2022/06/23 05:31:47;;;;;;;6.93;4.43;;;20.90;57.70;;;;;;5087749;28;20024;-67
2022/06/23 05:34:24;;;;;;;5.55;3.83;;;20.90;57.80;;;;;;5085295;28;20359;-69
2022/06/23 05:37:03;;;;;;;6.85;3.90;;;21.00;57.70;;;;;;5089557;28;20018;-71
2022/06/23 05:39:46;;;;;;;6.60;3.38;;;21.10;57.30;;;;;;5084368;28;20096;-67
2022/06/23 05:42:18;;;;;;;4.80;3.20;;;21.20;57.50;;;;;;5085372;28;20028;-68
2022/06/23 05:44:50;;;;;;;7.65;3.78;;;21.20;57.00;;;;;;5074507;28;20032;-68
2022/06/23 05:47:18;;;;;;;3.92;3.08;;;21.10;57.00;;;;;;5080624;28;20023;-68
2022/06/23 05:49:50;;;;;;;5.93;3.67;;;21.20;57.20;;;;;;5086708;28;20050;-68
2022/06/23 05:52:41;;;;;;;7.95;4.15;;;21.20;56.90;;;;;;5085149;28;20061;-68
2022/06/23 05:55:31;;;;;;;5.30;3.72;;;21.10;56.70;;;;;;5050506;28;20046;-69
2022/06/23 05:58:12;;;;;;;5.68;3.45;;;20.90;57.00;;;;;;5092228;28;20022;-69
2022/06/23 06:00:53;;;;;;;4.88;3.70;;;20.90;57.30;;;;;;5093326;28;20024;-69
2022/06/23 06:03:25;;;;;;;5.25;2.92;;;21.00;57.30;;;;;;5083094;28;20078;-68
2022/06/23 06:05:55;;;;;;;6.03;3.90;;;21.10;57.10;;;;;;5086152;28;20157;-68
2022/06/23 06:08:22;;;;;;;4.20;2.92;;;21.20;56.80;;;;;;5075136;28;20035;-68
2022/06/23 06:10:49;;;;;;;8.13;3.25;;;21.30;57.00;;;;;;5085440;28;20482;-68
2022/06/23 06:13:19;;;;;;;3.90;2.72;;;21.40;56.60;;;;;;5099510;28;20593;-67
2022/06/23 06:15:50;;;;;;;5.28;3.42;;;21.60;56.20;;;;;;5078938;27;20090;-68
2022/06/23 06:18:26;;;;;;;8.05;3.53;;;21.70;56.00;;;;;;5102549;28;20042;-67
2022/06/23 06:20:55;;;;;;;4.57;3.10;;;21.70;55.70;;;;;;5092802;28;20038;-69
2022/06/23 06:23:33;;;;;;;7.75;3.90;;;21.80;55.40;;;;;;5091202;28;20046;-68
2022/06/23 06:25:59;;;;;;;6.70;3.67;;;21.60;55.20;;;;;;5083684;28;20031;-68
2022/06/23 06:28:30;;;;;;;5.25;3.38;;;21.70;55.70;;;;;;5105809;28;20031;-69
2022/06/23 06:31:23;;;;;;;3.90;2.85;;;21.80;55.60;;;;;;5086663;28;20486;-68
2022/06/23 06:34:13;;;;;;;5.25;3.20;;;22.10;55.60;;;;;;5082973;28;20123;-69
2022/06/23 06:36:40;;;;;;;4.95;3.20;;;22.30;55.20;;;;;;5081561;28;20645;-69
2022/06/23 06:39:17;;;;;;;5.43;3.90;;;22.40;54.70;;;;;;5083186;28;20026;-68
2022/06/23 06:41:50;;;;;;;5.82;3.90;;;22.30;54.50;;;;;;5093439;28;20059;-69
2022/06/23 06:44:18;;;;;;;6.22;3.60;;;22.40;54.50;;;;;;5096981;28;20027;-68
2022/06/23 06:46:44;;;;;;;5.82;3.50;;;22.20;54.40;;;;;;5079023;28;20025;-69
2022/06/23 06:49:17;;;;;;;5.18;3.25;;;22.20;54.40;;;;;;5074855;28;20085;-69
2022/06/23 06:51:44;;;;;;;5.65;3.80;;;22.30;54.60;;;;;;5078576;28;20609;-69
2022/06/23 06:54:17;;;;;;;5.15;3.75;;;22.40;54.50;;;;;;5093130;28;20448;-69
2022/06/23 06:57:11;;;;;;;4.30;2.75;;;22.50;54.40;;;;;;5085277;28;20097;-68
2022/06/23 07:00:01;;;;;;;5.07;3.30;;;22.80;54.50;;;;;;5088391;28;20618;-68
2022/06/23 07:02:43;;;;;;;4.85;2.92;;;23.00;54.00;;;;;;5087663;28;20108;-69
2022/06/23 07:05:20;;;;;;;;;;;23.30;53.60;;;;;;5095741;28;20054;-69
2022/06/23 07:07:54;;;;;;;4.75;3.03;;;23.50;53.30;;;;;;5088478;28;19915;-69
2022/06/23 07:10:26;;;;;;;3.85;3.00;;;23.70;52.90;;;;;;5085436;28;20024;-70
2022/06/23 07:12:55;;;;;;;7.93;4.22;;;23.90;52.70;;;;;;5079500;28;20039;-69
2022/06/23 07:15:21;;;;;;;6.18;3.38;;;24.10;52.00;;;;;;5082299;28;20021;-69
2022/06/23 07:17:52;;;;;;;4.93;3.15;;;24.10;52.10;;;;;;5081715;28;20021;-69
2022/06/23 07:20:32;;;;;;;3.70;3.08;;;24.00;51.80;;;;;;5090130;28;20028;-68
2022/06/23 07:23:12;;;;;;;3.88;2.70;;;24.10;51.80;;;;;;5076415;28;20035;-69
2022/06/23 07:25:46;;;;;;;4.32;3.45;;;24.30;51.70;;;;;;5076794;28;20032;-70
2022/06/23 07:28:33;;;;;;;5.15;3.55;;;24.30;51.50;;;;;;5078393;28;20075;-68
2022/06/23 07:31:10;;;;;;;6.35;3.88;;;24.40;51.30;;;;;;5091759;28;20043;-69
2022/06/23 07:33:43;;;;;;;6.07;3.50;;;24.30;51.20;;;;;;5076874;28;20024;-68
2022/06/23 07:36:13;;;;;;;5.18;3.45;;;24.50;51.30;;;;;;5082224;28;20169;-69
2022/06/23 07:39:04;;;;;;;5.32;3.70;;;24.60;51.50;;;;;;5082455;28;20020;-69
2022/06/23 07:41:42;;;;;;;6.88;4.30;;;24.80;51.40;;;;;;5081073;28;20028;-69
2022/06/23 07:44:34;;;;;;;5.70;3.72;;;24.70;51.10;;;;;;5082843;28;20034;-68
2022/06/23 07:47:01;;;;;;;5.53;4.00;;;24.70;51.20;;;;;;5076679;28;20032;-68
2022/06/23 07:49:27;;;;;;;5.05;3.90;;;24.80;51.20;;;;;;5092853;28;20032;-68
2022/06/23 07:51:55;;;;;;;6.18;3.42;;;24.80;51.30;;;;;;5087823;28;20655;-69
2022/06/23 07:54:22;;;;;;;5.05;3.90;;;25.00;51.30;;;;;;5091860;28;20028;-69
2022/06/23 07:56:49;;;;;;;5.05;3.67;;;25.00;50.80;;;;;;5090558;28;20024;-67
2022/06/23 07:59:18;;;;;;;5.85;3.70;;;25.00;51.00;;;;;;5089576;28;20027;-68
2022/06/23 08:02:04;;;;;;;6.68;3.90;;;25.00;50.90;;;;;;5075988;28;20031;-70
2022/06/23 08:04:36;;;;;;;6.55;4.10;;;25.10;51.00;;;;;;5071191;28;20104;-66
2022/06/23 08:07:03;;;;;;;;;;;25.30;50.80;;;;;;5083363;28;20041;-68
2022/06/23 08:09:38;;;;;;;6.28;4.22;;;25.50;50.70;;;;;;5081608;28;19912;-67
2022/06/23 08:16:49;;;;;;;6.15;4.10;;;25.60;50.10;;;;;;5091709;28;20449;-67
2022/06/23 08:17:40;;;;;;;6.03;3.25;;;25.50;50.00;;;;;;5077540;28;20020;-68
2022/06/23 08:20:09;;;;;;;6.53;3.83;;;25.70;50.30;;;;;;5082112;28;20101;-68
2022/06/23 08:22:37;;;;;;;7.20;4.53;;;25.90;50.00;;;;;;5081742;28;20032;-67
2022/06/23 08:25:06;;;;;;;5.15;3.85;;;26.00;49.70;;;;;;5072743;28;20016;-67
2022/06/23 08:27:33;;;;;;;6.45;3.55;;;26.00;49.90;;;;;;5078897;28;20097;-69
2022/06/23 08:30:14;;;;;;;6.70;4.07;;;26.10;50.00;;;;;;5084117;28;20028;-67
2022/06/23 08:32:41;;;;;;;7.15;4.85;;;26.10;49.60;;;;;;5092577;28;20022;-67
2022/06/23 08:35:37;;;;;;;6.80;4.03;;;26.00;49.90;;;;;;5091584;28;20034;-67
2022/06/23 08:38:12;;;;;;;5.55;3.70;;;26.10;49.90;;;;;;5081151;28;20020;-67
2022/06/23 08:40:55;;;;;;;6.57;3.97;;;26.20;49.90;;;;;;5079270;28;20032;-67
2022/06/23 08:43:42;;;;;;;6.65;4.00;;;26.40;49.90;;;;;;5074716;28;20482;-69
2022/06/23 08:46:24;;;;;;;6.05;4.22;;;26.70;49.70;;;;;;5078284;28;20047;-66
2022/06/23 08:49:01;;;;;;;5.90;4.47;;;26.80;49.50;;;;;;5083688;28;20052;-66
2022/06/23 08:51:48;;;;;;;6.35;4.03;;;26.90;49.50;;;;;;5081846;28;20023;-67
2022/06/23 08:54:40;;;;;;;7.40;4.50;;;27.00;49.30;;;;;;5080847;28;20700;-66
2022/06/23 08:57:15;;;;;;;8.43;4.85;;;27.00;49.10;;;;;;5080151;28;20024;-67
2022/06/23 08:59:55;;;;;;;6.97;3.58;;;26.90;49.10;;;;;;5075113;28;20095;-69
2022/06/23 09:02:32;;;;;;;5.82;3.55;;;27.00;49.60;;;;;;5069424;28;20039;-68
2022/06/23 09:05:01;;;;;;;6.82;4.07;;;27.30;49.40;;;;;;5074816;28;20744;-67
2022/06/23 09:07:45;;;;;;;7.03;3.90;;;27.50;49.10;;;;;;5074254;28;20488;-67
2022/06/23 09:10:29;;;;;;;10.05;5.40;;;27.70;49.00;;;;;;5076842;28;20051;-68
2022/06/23 09:13:10;;;;;;;7.22;4.70;;;27.90;48.60;;;;;;5073443;28;20031;-67
2022/06/23 09:15:50;;;;;;;11.80;6.67;;;28.00;48.40;;;;;;5076234;28;20067;-68
2022/06/23 09:18:51;;;;;;;8.75;5.32;;;28.00;48.20;;;;;;5070936;28;20506;-67
2022/06/23 09:21:30;;;;;;;9.67;5.20;;;28.00;48.40;;;;;;5078905;28;20030;-67
2022/06/23 09:24:08;;;;;;;14.38;6.72;;;28.00;48.40;;;;;;5090370;28;20369;-67
2022/06/23 09:26:49;;;;;;;14.93;7.93;;;28.20;48.40;;;;;;5086499;28;20063;-67
2022/06/23 09:29:38;;;;;;;12.13;5.97;;;28.30;48.10;;;;;;5083085;28;20035;-68
2022/06/23 09:32:26;;;;;;;10.02;4.53;;;28.50;47.90;;;;;;5072142;28;20063;-67
2022/06/23 09:35:25;;;;;;;6.40;3.15;;;28.50;47.70;;;;;;5089719;28;20106;-68
2022/06/23 09:38:19;;;;;;;7.03;3.10;;;28.60;47.10;;;;;;5090078;28;20020;-68
2022/06/23 09:40:57;;;;;;;4.05;2.78;;;28.50;47.30;;;;;;5088788;28;20027;-68
2022/06/23 09:43:55;;;;;;;7.20;2.65;;;28.70;47.00;;;;;;5089965;28;20036;-67
2022/06/23 09:46:43;;;;;;;4.97;2.80;;;28.90;46.20;;;;;;5088793;28;20077;-67
2022/06/23 09:49:30;;;;;;;6.47;3.03;;;29.00;46.10;;;;;;5089720;28;20051;-67
2022/06/23 09:52:02;;;;;;;7.20;2.72;;;29.20;46.10;;;;;;5089869;28;20112;-67
2022/06/23 09:54:46;;;;;;;8.73;2.85;;;29.20;46.60;;;;;;5088220;28;20027;-67
2022/06/23 09:57:50;;;;;;;8.55;3.03;;;29.10;45.80;;;;;;5088827;28;20503;-68
2022/06/23 10:00:19;;;;;;;5.50;2.97;;;29.00;45.60;;;;;;5092042;28;20504;-68
2022/06/23 10:03:07;;;;;;;3.72;2.15;;;29.10;45.80;;;;;;5092389;28;20054;-67
2022/06/23 10:06:00;;;;;;;5.43;2.80;;;29.20;45.80;;;;;;5093615;28;20024;-67
2022/06/23 10:08:50;;;;;;;5.78;2.75;;;29.50;45.60;;;;;;5093771;28;20031;-67
2022/06/23 10:11:40;;;;;;;6.40;3.00;;;29.60;45.20;;;;;;5093566;28;20646;-67
2022/06/23 10:14:14;;;;;;;5.97;3.00;;;29.60;45.10;;;;;;5093490;28;20111;-68
2022/06/23 10:17:06;;;;;;;7.18;3.85;;;29.50;45.10;;;;;;5093244;28;20020;-67
2022/06/23 10:19:52;;;;;;;3.80;2.15;;;29.20;45.10;;;;;;5093343;28;20600;-68
2022/06/23 10:22:55;;;;;;;6.93;2.83;;;29.30;45.80;;;;;;5093272;28;20020;-68
2022/06/23 10:25:20;;;;;;;5.45;2.25;;;29.50;45.70;;;;;;5093406;28;20026;-67
2022/06/23 10:28:06;;;;;;;8.68;3.80;;;29.80;45.50;;;;;;5093111;28;20028;-69
2022/06/23 10:30:55;;;;;;;7.97;3.85;;;29.90;44.80;;;;;;5092004;28;20068;-68
2022/06/23 10:33:40;;;;;;;6.82;3.40;;;29.60;45.00;;;;;;5093134;28;20081;-66
2022/06/23 10:36:27;;;;;;;6.90;3.47;;;29.60;45.50;;;;;;5093699;28;20321;-66
2022/06/23 10:38:56;;;;;;;9.65;3.78;;;29.80;45.50;;;;;;5091739;28;20047;-67
2022/06/23 10:41:58;;;;;;;8.10;3.00;;;29.90;45.20;;;;;;5093076;28;20521;-66
2022/06/23 10:44:50;;;;;;;4.95;3.03;;;30.20;45.40;;;;;;5092907;28;20028;-66
2022/06/23 10:47:41;;;;;;;4.88;2.80;;;30.40;45.30;;;;;;5092963;28;20028;-68
2022/06/23 10:50:28;;;;;;;4.85;2.50;;;30.60;44.80;;;;;;5092948;28;20024;-67
2022/06/23 10:53:20;;;;;;;6.10;3.28;;;30.90;45.50;;;;;;5091701;28;20035;-67
2022/06/23 10:56:06;;;;;;;5.53;2.90;;;30.90;44.20;;;;;;5093092;28;20052;-66
2022/06/23 10:58:52;;;;;;;5.70;2.40;;;31.10;44.00;;;;;;5093112;28;20077;-67
2022/06/23 11:01:45;;;;;;;7.55;2.97;;;31.20;43.80;;;;;;5092953;28;20028;-67
2022/06/23 11:04:29;;;;;;;5.95;3.22;;;31.20;43.60;;;;;;5092685;28;20521;-67
2022/06/23 11:07:12;;;;;;;4.53;2.80;;;31.10;42.80;;;;;;5092735;28;20031;-67
2022/06/23 11:09:46;;;;;;;4.82;2.67;;;30.90;43.20;;;;;;5091210;28;20562;-68
2022/06/23 11:12:23;;;;;;;3.47;1.98;;;30.80;43.60;;;;;;5091257;28;20046;-67
2022/06/23 11:14:52;;;;;;;4.15;2.50;;;31.00;43.70;;;;;;5092403;28;20062;-66
2022/06/23 11:17:39;;;;;;;4.95;2.90;;;31.20;42.80;;;;;;5091042;28;20024;-66
2022/06/23 11:20:19;;;;;;;4.00;2.63;;;31.10;42.40;;;;;;5092329;28;20016;-66
2022/06/23 11:23:05;;;;;;;5.82;2.90;;;31.10;42.50;;;;;;5091111;28;20089;-66
2022/06/23 11:25:57;;;;;;;5.47;2.67;;;31.10;42.60;;;;;;5092279;28;20077;-66
2022/06/23 11:28:57;;;;;;;6.10;3.00;;;31.20;42.50;;;;;;5092565;28;20492;-66
2022/06/23 11:31:49;;;;;;;5.10;2.38;;;31.40;42.10;;;;;;5092187;28;20027;-67
2022/06/23 11:34:17;;;;;;;6.18;3.10;;;31.40;42.40;;;;;;5091718;28;20085;-66
2022/06/23 11:37:16;;;;;;;7.30;3.20;;;31.50;42.30;;;;;;5092017;28;20027;-66
2022/06/23 11:39:56;;;;;;;5.97;3.20;;;31.70;42.10;;;;;;5091211;28;20043;-67
2022/06/23 11:42:38;;;;;;;5.00;2.55;;;32.00;41.60;;;;;;5091995;28;20058;-66
2022/06/23 11:45:34;;;;;;;7.53;2.72;;;32.20;41.30;;;;;;5091606;28;20085;-66
2022/06/23 11:48:25;;;;;;;7.43;3.50;;;32.30;41.10;;;;;;5091763;28;20059;-66
2022/06/23 11:51:23;;;;;;;6.03;2.58;;;32.20;40.40;;;;;;5072273;28;20106;-66
2022/06/23 11:53:58;;;;;;;6.57;2.53;;;32.20;40.70;;;;;;5071435;28;20107;-67
2022/06/23 11:56:34;;;;;;;4.93;2.60;;;32.40;40.50;;;;;;5091623;28;20030;-66
2022/06/23 11:59:24;;;;;;;4.57;2.35;;;32.50;40.60;;;;;;5091166;28;20032;-67
2022/06/23 12:01:50;;;;;;;8.77;3.30;;;32.70;40.10;;;;;;5091343;28;20497;-67
2022/06/23 12:04:42;;;;;;;8.05;2.60;;;32.70;39.60;;;;;;5091316;28;20028;-67
2022/06/23 12:07:38;;;;;;;6.57;2.70;;;32.70;40.20;;;;;;5081871;28;20637;-67
2022/06/23 12:10:14;;;;;;;5.85;2.63;;;32.70;40.00;;;;;;5081905;28;20187;-68
2022/06/23 12:12:43;;;;;;;5.28;2.85;;;32.70;40.20;;;;;;5079588;28;20094;-67
2022/06/23 12:15:11;;;;;;;7.07;2.88;;;32.80;40.10;;;;;;5080355;28;20020;-66
2022/06/23 12:17:43;;;;;;;5.13;2.80;;;32.70;40.00;;;;;;5081335;28;20498;-67
2022/06/23 12:20:30;;;;;;;8.95;3.67;;;32.60;40.20;;;;;;5078545;28;20019;-66
2022/06/23 12:23:26;;;;;;;8.90;3.30;;;32.60;39.80;;;;;;5078118;28;20670;-67
2022/06/23 12:25:57;;;;;;;5.47;2.70;;;32.90;39.50;;;;;;5080574;28;20044;-68
2022/06/23 12:28:31;;;;;;;5.20;2.85;;;32.90;39.30;;;;;;5079157;28;20023;-67
2022/06/23 12:31:22;;;;;;;6.00;2.33;;;32.80;39.10;;;;;;5079433;28;20438;-67
2022/06/23 12:33:54;;;;;;;9.60;2.93;;;32.70;39.50;;;;;;5079717;28;20051;-68
2022/06/23 12:36:35;;;;;;;4.78;2.85;;;32.60;39.80;;;;;;5079150;28;20390;-67
2022/06/23 12:39:11;;;;;;;;;;;32.70;39.80;;;;;;5078903;28;20513;-67
2022/06/23 12:41:43;;;;;;;5.93;2.47;;;32.90;39.50;;;;;;5079654;28;19916;-67
2022/06/23 12:44:30;;;;;;;8.43;5.13;;;33.10;39.40;;;;;;5083345;28;20112;-68
2022/06/23 12:47:13;;;;;;;9.95;3.30;;;33.40;39.30;;;;;;5084983;28;20024;-68
2022/06/23 12:50:04;;;;;;;5.63;2.28;;;33.60;38.90;;;;;;5088834;28;20092;-68
2022/06/23 12:52:53;;;;;;;6.10;2.70;;;33.90;38.80;;;;;;5079887;28;20062;-68
2022/06/23 12:55:41;;;;;;;5.32;2.72;;;33.90;38.40;;;;;;5078506;28;20024;-68
2022/06/23 12:58:28;;;;;;;5.68;2.35;;;33.60;38.40;;;;;;5078597;28;20028;-68
2022/06/23 13:01:16;;;;;;;6.15;2.70;;;33.60;38.50;;;;;;5078297;28;20038;-67
2022/06/23 13:03:41;;;;;;;9.05;2.72;;;33.60;38.50;;;;;;5081257;28;20017;-68
2022/06/23 13:06:22;;;;;;;5.45;2.60;;;33.50;38.80;;;;;;5080802;28;20024;-67
2022/06/23 13:09:27;;;;;;;7.82;2.58;;;33.60;38.70;;;;;;5080178;28;20397;-67
2022/06/23 13:12:06;;;;;;;6.60;2.88;;;33.60;38.60;;;;;;5081033;28;20036;-67
2022/06/23 13:14:53;;;;;;;6.82;2.20;;;33.70;38.40;;;;;;5076303;28;20027;-66
2022/06/23 13:17:32;;;;;;;6.43;3.42;;;34.10;38.30;;;;;;5078911;28;20013;-67
2022/06/23 13:20:00;;;;;;;7.15;3.08;;;34.10;37.60;;;;;;5080915;28;20059;-66
2022/06/23 13:22:26;;;;;;;5.82;2.70;;;34.10;37.90;;;;;;5078723;28;20107;-66
2022/06/23 13:24:56;;;;;;;6.13;2.75;;;34.20;37.90;;;;;;5081842;28;20076;-66
2022/06/23 13:27:29;;;;;;;6.22;2.40;;;34.30;38.00;;;;;;5081200;28;20027;-67
2022/06/23 13:30:05;;;;;;;5.07;2.50;;;34.50;37.80;;;;;;5080543;28;20020;-66
2022/06/23 13:32:45;;;;;;;6.68;2.40;;;34.80;37.60;;;;;;5079560;28;20013;-66
2022/06/23 13:35:21;;;;;;;8.55;2.55;;;35.00;37.00;;;;;;5088412;28;20035;-67
2022/06/23 13:37:56;;;;;;;6.90;2.70;;;35.10;36.20;;;;;;5085122;28;20447;-67
2022/06/23 13:40:55;;;;;;;3.83;2.08;;;34.80;36.00;;;;;;5083241;28;20023;-67
2022/06/23 13:43:33;;;;;;;5.35;2.13;;;34.50;36.70;;;;;;5081479;28;20119;-67
2022/06/23 13:46:07;;;;;;;5.40;2.20;;;34.40;37.10;;;;;;5082558;28;20074;-66
2022/06/23 13:48:48;;;;;;;5.05;2.25;;;34.40;37.40;;;;;;5085420;28;20024;-67
2022/06/23 13:51:30;;;;;;;;;;;34.40;37.60;;;;;;5084954;28;20028;-67
2022/06/23 13:54:01;;;;;;;8.85;2.30;;;34.40;37.30;;;;;;5085326;28;19916;-67
2022/06/23 13:56:39;;;;;;;7.13;1.90;;;34.20;37.30;;;;;;5084669;28;20054;-67
2022/06/23 13:59:12;;;;;;;6.05;2.03;;;34.40;37.40;;;;;;5076410;28;20098;-66